Abbott, Texas
Current Conditions -  °F | °C
As of 9:15 PM on Wednesday 22 Oct 2014 (Local Time) from KINJ Reporting Station
Clear Clear  
Wind Chill: 71°   Ceiling: Unl
Heat Index: 71°   Visibility: 10mi
Dew Point: 54°   Wind: 7mph
Humidity: 55%   Direction: 90°E
Pressure: 30.11"   Gusts: NA
Location:  31.88°N, 97.07°W
Report Text: KINJ 230215Z AUTO 09006KT 10SM CLR 22/12 A3011 RMK AO2 T02160122
Loading
Personal Weather Stations






























Interactive Weather Map
Tropical Storm Tracking
New forecast layout! Learn more

10-Day Weather Forecast

Advertisements
Track Severe Weather on mobile